Time;durP1;ratioP1;P1;durP2;ratioP2;P2;SDS_P1;SDS_P2;PMS_P1;PMS_P2;Temp;Humidity;BMP_temperature;BMP_pressure;BME280_temperature;BME280_humidity;BME280_pressure;Samples;Min_cycle;Max_cycle;Signal;HPM_P1;HPM_P2
2023/03/30 00:00:32;;;;;;;;;;;20.20;41.80;;;;;;5061460;28;19920;-66
2023/03/30 00:03:02;;;;;;;;;;;20.20;41.80;;;;;;5074495;28;19929;-66
2023/03/30 00:05:29;;;;;;;;;;;20.20;41.80;;;;;;5061129;28;19924;-64
2023/03/30 00:07:56;;;;;;;;;;;20.20;41.90;;;;;;5075968;28;19933;-62
2023/03/30 00:10:23;;;;;;;;;;;20.20;41.90;;;;;;5062256;28;19951;-65
2023/03/30 00:12:51;;;;;;;;;;;20.20;41.90;;;;;;5062571;28;19927;-65
2023/03/30 00:15:22;;;;;;;;;;;20.20;41.90;;;;;;5063015;28;20409;-63
2023/03/30 00:17:53;;;;;;;;;;;20.20;41.90;;;;;;5064348;28;19932;-66
2023/03/30 00:20:21;;;;;;;;;;;20.20;41.90;;;;;;5075332;28;19928;-67
2023/03/30 00:22:48;;;;;;;;;;;20.20;41.90;;;;;;5075593;28;20015;-66
2023/03/30 00:25:16;;;;;;;;;;;20.20;41.90;;;;;;5062248;28;19947;-64
2023/03/30 00:27:44;;;;;;;;;;;20.20;41.90;;;;;;5060705;28;19963;-62
2023/03/30 00:30:12;;;;;;;;;;;20.20;41.90;;;;;;5061851;28;19959;-67
2023/03/30 00:32:41;;;;;;;;;;;20.20;42.00;;;;;;5061905;28;20019;-65
2023/03/30 00:35:09;;;;;;;;;;;20.30;42.00;;;;;;5062302;28;20247;-65
2023/03/30 00:37:37;;;;;;;;;;;20.20;42.00;;;;;;5045360;28;19931;-66
2023/03/30 00:40:06;;;;;;;;;;;20.30;42.00;;;;;;5074547;28;19926;-64
2023/03/30 00:42:34;;;;;;;;;;;20.20;42.00;;;;;;5062997;28;19986;-64
2023/03/30 00:45:09;;;;;;;;;;;20.20;42.00;;;;;;5052834;28;19924;-64
2023/03/30 00:47:36;;;;;;;;;;;20.20;42.00;;;;;;5059785;28;19926;-65
2023/03/30 00:50:06;;;;;;;;;;;20.20;42.60;;;;;;5064998;28;19928;-64
2023/03/30 00:52:36;;;;;;;;;;;20.20;42.00;;;;;;5062083;28;19921;-63
2023/03/30 00:55:03;;;;;;;;;;;20.20;42.00;;;;;;5060941;28;19928;-65
2023/03/30 00:57:32;;;;;;;;;;;20.20;42.00;;;;;;5060792;28;19924;-65
2023/03/30 01:00:00;;;;;;;;;;;20.20;42.00;;;;;;5063571;28;19927;-63
2023/03/30 01:02:27;;;;;;;;;;;20.20;42.00;;;;;;5063207;28;19967;-65
2023/03/30 01:04:54;;;;;;;;;;;20.20;42.00;;;;;;5061612;28;19927;-65
2023/03/30 01:07:23;;;;;;;;;;;20.20;42.10;;;;;;5078064;28;19971;-66
2023/03/30 01:09:50;;;;;;;;;;;20.20;42.00;;;;;;5072747;28;19924;-65
2023/03/30 01:12:17;;;;;;;;;;;20.20;42.10;;;;;;5067231;28;19927;-65
2023/03/30 01:14:45;;;;;;;;;;;20.20;42.10;;;;;;5075105;28;19920;-65
2023/03/30 01:17:14;;;;;;;;;;;20.20;42.00;;;;;;5066424;28;19920;-66
2023/03/30 01:19:47;;;;;;;;;;;20.20;42.10;;;;;;5070395;28;19932;-65
2023/03/30 01:22:33;;;;;;;;;;;20.20;42.00;;;;;;5066468;28;19925;-65
2023/03/30 01:25:25;;;;;;;;;;;20.20;42.10;;;;;;5069944;28;19921;-64
2023/03/30 01:28:13;;;;;;;;;;;20.20;42.10;;;;;;5063778;28;19928;-65
2023/03/30 01:31:03;;;;;;;;;;;20.20;42.10;;;;;;5064200;28;19931;-64
2023/03/30 01:33:33;;;;;;;;;;;20.20;42.10;;;;;;5069092;28;19920;-65
2023/03/30 01:36:17;;;;;;;;;;;20.20;42.10;;;;;;5070344;28;19932;-61
2023/03/30 01:38:59;;;;;;;;;;;20.20;42.10;;;;;;5069483;28;19931;-65
2023/03/30 01:41:28;;;;;;;;;;;20.20;42.20;;;;;;5073822;28;19976;-63
2023/03/30 01:43:57;;;;;;;;;;;20.20;42.20;;;;;;5073205;28;19924;-65
2023/03/30 01:46:25;;;;;;;;;;;20.20;42.20;;;;;;5070122;28;19924;-65
2023/03/30 01:48:56;;;;;;;;;;;20.20;42.20;;;;;;5067996;28;20380;-66
2023/03/30 01:51:24;;;;;;;;;;;20.20;42.20;;;;;;5073447;28;19933;-62
2023/03/30 01:53:52;;;;;;;;;;;20.20;42.20;;;;;;5066315;28;19951;-66
2023/03/30 01:56:21;;;;;;;;;;;20.20;42.20;;;;;;5056955;28;20015;-66
2023/03/30 01:58:49;;;;;;;;;;;20.20;42.20;;;;;;5055681;28;19973;-64
2023/03/30 02:01:16;;;;;;;;;;;20.20;42.20;;;;;;5067200;28;19921;-64
2023/03/30 02:03:44;;;;;;;;;;;20.20;42.20;;;;;;5072385;28;19927;-62
2023/03/30 02:06:12;;;;;;;;;;;20.20;42.20;;;;;;5071830;28;20433;-64
2023/03/30 02:08:40;;;;;;;;;;;20.20;42.20;;;;;;5065344;28;19920;-63
2023/03/30 02:11:07;;;;;;;;;;;20.20;42.20;;;;;;5065770;28;20414;-61
2023/03/30 02:13:37;;;;;;;;;;;20.20;42.20;;;;;;5070104;28;19959;-65
2023/03/30 02:16:05;;;;;;;;;;;20.20;42.20;;;;;;5071941;28;19947;-59
2023/03/30 02:18:32;;;;;;;;;;;20.20;42.20;;;;;;5065676;28;20341;-65
2023/03/30 02:21:00;;;;;;;;;;;20.20;42.20;;;;;;5068219;28;19921;-65
2023/03/30 02:23:29;;;;;;;;;;;20.20;42.20;;;;;;5069409;28;19924;-65
2023/03/30 02:25:56;;;;;;;;;;;20.20;42.30;;;;;;5062319;28;19943;-65
2023/03/30 02:28:23;;;;;;;;;;;20.20;42.20;;;;;;5072361;28;19936;-63
2023/03/30 02:30:51;;;;;;;;;;;20.20;42.30;;;;;;5068145;28;19920;-66
2023/03/30 02:33:21;;;;;;;;;;;20.20;42.20;;;;;;5069391;28;19925;-64
2023/03/30 02:36:03;;;;;;;;;;;20.20;42.30;;;;;;5067418;28;19932;-64
2023/03/30 02:38:32;;;;;;;;;;;20.20;42.30;;;;;;5062819;28;19925;-64
2023/03/30 02:41:03;;;;;;;;;;;20.20;42.20;;;;;;5067707;28;19921;-62
2023/03/30 02:43:33;;;;;;;;;;;20.20;42.30;;;;;;5066743;28;20009;-62
2023/03/30 02:46:04;;;;;;;;;;;20.20;42.30;;;;;;5064922;28;19974;-64
2023/03/30 02:48:34;;;;;;;;;;;20.20;42.30;;;;;;5069109;28;20362;-64
2023/03/30 02:51:03;;;;;;;;;;;20.20;42.30;;;;;;5064365;28;20264;-63
2023/03/30 02:53:31;;;;;;;;;;;20.20;42.30;;;;;;5056868;28;19928;-64
2023/03/30 02:56:02;;;;;;;;;;;20.20;42.30;;;;;;5069262;28;19927;-65
2023/03/30 02:58:32;;;;;;;;;;;20.20;42.30;;;;;;5062783;28;20009;-64
2023/03/30 03:01:00;;;;;;;;;;;20.20;42.40;;;;;;5060934;28;19924;-63
2023/03/30 03:03:30;;;;;;;;;;;20.20;42.30;;;;;;5049598;28;19928;-61
2023/03/30 03:06:01;;;;;;;;;;;20.20;42.30;;;;;;5066449;28;19920;-64
2023/03/30 03:08:29;;;;;;;;;;;20.20;42.40;;;;;;5064688;28;19954;-64
2023/03/30 03:10:55;;;;;;;;;;;20.20;42.40;;;;;;5067553;28;19924;-65
2023/03/30 03:13:23;;;;;;;;;;;20.20;42.40;;;;;;5067527;28;19933;-65
2023/03/30 03:15:54;;;;;;;;;;;20.20;42.40;;;;;;5068538;28;19927;-63
2023/03/30 03:18:20;;;;;;;;;;;20.20;43.00;;;;;;5068758;28;20015;-65
2023/03/30 03:20:49;;;;;;;;;;;20.20;42.40;;;;;;5059531;28;19921;-62
2023/03/30 03:23:15;;;;;;;;;;;20.20;42.40;;;;;;5062886;28;19920;-65
2023/03/30 03:25:42;;;;;;;;;;;20.20;42.40;;;;;;5064823;28;19932;-61
2023/03/30 03:28:09;;;;;;;;;;;20.20;42.40;;;;;;5058556;28;19924;-65
2023/03/30 03:30:36;;;;;;;;;;;20.20;42.40;;;;;;5068783;28;19974;-65
2023/03/30 03:33:03;;;;;;;;;;;20.20;42.40;;;;;;5071827;28;19978;-66
2023/03/30 03:35:32;;;;;;;;;;;20.20;42.40;;;;;;5068428;28;19940;-65
2023/03/30 03:38:00;;;;;;;;;;;20.20;42.40;;;;;;5071625;28;19970;-65
2023/03/30 03:40:27;;;;;;;;;;;20.20;42.40;;;;;;5071148;28;19998;-65
2023/03/30 03:42:54;;;;;;;;;;;20.20;42.40;;;;;;5055294;28;19995;-66
2023/03/30 03:45:20;;;;;;;;;;;20.20;42.50;;;;;;5071279;28;20029;-65
2023/03/30 03:47:47;;;;;;;;;;;20.20;42.50;;;;;;5065305;28;20278;-66
2023/03/30 03:50:14;;;;;;;;;;;20.20;43.10;;;;;;5073101;28;19924;-64
2023/03/30 03:52:41;;;;;;;;;;;20.20;42.50;;;;;;5066757;28;19927;-65
2023/03/30 03:55:11;;;;;;;;;;;20.20;42.50;;;;;;5062412;28;20047;-65
2023/03/30 03:57:38;;;;;;;;;;;20.20;42.50;;;;;;5065669;28;20366;-65
2023/03/30 04:00:14;;;;;;;;;;;20.20;42.50;;;;;;5072499;28;19974;-65
2023/03/30 04:02:41;;;;;;;;;;;20.20;42.50;;;;;;5066709;28;19930;-65
2023/03/30 04:05:08;;;;;;;;;;;20.20;42.50;;;;;;5067815;28;19974;-64
2023/03/30 04:07:35;;;;;;;;;;;20.20;42.50;;;;;;5064416;28;19921;-64
2023/03/30 04:10:02;;;;;;;;;;;20.20;42.50;;;;;;5070893;28;19967;-62
2023/03/30 04:12:31;;;;;;;;;;;20.20;42.50;;;;;;5072553;28;19920;-64
2023/03/30 04:14:58;;;;;;;;;;;20.20;42.50;;;;;;5065426;28;19962;-65
2023/03/30 04:17:25;;;;;;;;;;;20.20;42.50;;;;;;5073048;28;19920;-64
2023/03/30 04:19:53;;;;;;;;;;;20.20;42.50;;;;;;5070502;28;19924;-64
2023/03/30 04:22:23;;;;;;;;;;;20.20;42.50;;;;;;5067621;28;19970;-64
2023/03/30 04:24:50;;;;;;;;;;;20.20;42.50;;;;;;5070793;28;19968;-65
2023/03/30 04:27:16;;;;;;;;;;;20.20;42.50;;;;;;5063032;28;19970;-64
2023/03/30 04:29:44;;;;;;;;;;;20.20;42.50;;;;;;5066495;28;19924;-64
2023/03/30 04:32:11;;;;;;;;;;;20.20;42.50;;;;;;5069721;28;19924;-64
2023/03/30 04:34:41;;;;;;;;;;;20.20;42.60;;;;;;5068057;28;19924;-64
2023/03/30 04:37:08;;;;;;;;;;;20.20;42.60;;;;;;5070296;28;19920;-64
2023/03/30 04:39:35;;;;;;;;;;;20.20;42.60;;;;;;5069621;28;19985;-65
2023/03/30 04:42:02;;;;;;;;;;;20.20;42.60;;;;;;5066030;28;19928;-64
2023/03/30 04:44:30;;;;;;;;;;;20.20;42.60;;;;;;5061903;28;20428;-64
2023/03/30 04:46:58;;;;;;;;;;;20.20;42.60;;;;;;5069278;28;19959;-66
2023/03/30 04:49:24;;;;;;;;;;;20.20;42.60;;;;;;5066714;28;19924;-66
2023/03/30 04:51:51;;;;;;;;;;;20.20;42.60;;;;;;5067406;28;19921;-66
2023/03/30 04:54:18;;;;;;;;;;;20.20;42.60;;;;;;5062614;28;19924;-65
2023/03/30 04:56:45;;;;;;;;;;;20.20;42.60;;;;;;5067241;28;19924;-65
2023/03/30 04:59:12;;;;;;;;;;;20.20;42.60;;;;;;5069973;28;19924;-64
2023/03/30 05:01:38;;;;;;;;;;;20.20;42.60;;;;;;5067311;28;19920;-65
2023/03/30 05:04:07;;;;;;;;;;;20.20;42.60;;;;;;5070837;28;19921;-64
2023/03/30 05:06:34;;;;;;;;;;;20.20;42.70;;;;;;5066689;28;19932;-65
2023/03/30 05:09:01;;;;;;;;;;;20.20;42.60;;;;;;5060826;28;20010;-65
2023/03/30 05:11:28;;;;;;;;;;;20.20;42.70;;;;;;5063404;28;19956;-66
2023/03/30 05:13:55;;;;;;;;;;;20.20;42.70;;;;;;5070260;28;19925;-65
2023/03/30 05:16:22;;;;;;;;;;;20.20;42.70;;;;;;5070585;28;20325;-65
2023/03/30 05:18:49;;;;;;;;;;;20.20;42.60;;;;;;5055572;28;19920;-65
2023/03/30 05:21:17;;;;;;;;;;;20.20;42.70;;;;;;5051851;28;19932;-65
2023/03/30 05:23:44;;;;;;;;;;;20.20;42.60;;;;;;5057433;28;19928;-65
2023/03/30 05:26:11;;;;;;;;;;;20.20;42.70;;;;;;5070238;28;20322;-64
2023/03/30 05:28:38;;;;;;;;;;;20.20;42.70;;;;;;5056354;28;19966;-64
2023/03/30 05:31:05;;;;;;;;;;;20.20;42.70;;;;;;5058458;28;19982;-63
2023/03/30 05:33:32;;;;;;;;;;;20.20;42.70;;;;;;5042055;28;19997;-64
2023/03/30 05:35:58;;;;;;;;;;;20.20;42.70;;;;;;5057991;28;20390;-63
2023/03/30 05:38:27;;;;;;;;;;;20.20;42.70;;;;;;5070255;28;19925;-64
2023/03/30 05:40:53;;;;;;;;;;;20.20;42.70;;;;;;5068660;28;19928;-64
2023/03/30 05:43:20;;;;;;;;;;;20.20;42.70;;;;;;5068925;28;19924;-65
2023/03/30 05:45:47;;;;;;;;;;;20.20;42.60;;;;;;5070225;28;20411;-62
2023/03/30 05:48:14;;;;;;;;;;;20.20;42.60;;;;;;5067078;28;19933;-64
2023/03/30 05:50:41;;;;;;;;;;;20.20;42.60;;;;;;5067295;28;19928;-65
2023/03/30 05:53:08;;;;;;;;;;;20.20;42.60;;;;;;5060083;28;19931;-64
2023/03/30 05:55:37;;;;;;;;;;;20.20;42.70;;;;;;5069544;28;19924;-64
2023/03/30 05:58:03;;;;;;;;;;;20.20;42.60;;;;;;5059254;28;19977;-62
2023/03/30 06:00:32;;;;;;;;;;;20.20;42.70;;;;;;5063447;28;19943;-66
2023/03/30 06:02:58;;;;;;;;;;;20.20;42.60;;;;;;5065598;28;20038;-64
2023/03/30 06:05:25;;;;;;;;;;;20.20;42.60;;;;;;5068460;28;19924;-64
2023/03/30 06:07:53;;;;;;;;;;;20.20;42.70;;;;;;5067570;28;19924;-65
2023/03/30 06:10:20;;;;;;;;;;;20.20;42.70;;;;;;5068987;28;20393;-63
2023/03/30 06:12:48;;;;;;;;;;;20.20;42.80;;;;;;5065595;28;19964;-63
2023/03/30 06:15:15;;;;;;;;;;;20.20;42.80;;;;;;5068611;28;19921;-66
2023/03/30 06:17:41;;;;;;;;;;;20.20;42.80;;;;;;5067781;28;19920;-62
2023/03/30 06:20:11;;;;;;;;;;;20.20;42.80;;;;;;5067729;28;19934;-65
2023/03/30 06:22:38;;;;;;;;;;;20.20;42.80;;;;;;5067967;28;19940;-62
2023/03/30 06:25:06;;;;;;;;;;;20.20;42.90;;;;;;5071154;28;20379;-65
2023/03/30 06:27:32;;;;;;;;;;;20.20;42.90;;;;;;5067703;28;19920;-65
2023/03/30 06:30:01;;;;;;;;;;;20.20;42.90;;;;;;5067796;28;20359;-66
2023/03/30 06:32:28;;;;;;;;;;;20.20;42.90;;;;;;5049413;28;19924;-65
2023/03/30 06:34:55;;;;;;;;;;;20.20;42.90;;;;;;5046873;28;19935;-65
2023/03/30 06:37:21;;;;;;;;;;;20.20;42.90;;;;;;5050265;28;19927;-65
2023/03/30 06:39:48;;;;;;;;;;;20.20;42.90;;;;;;5048361;28;19955;-62
2023/03/30 06:42:15;;;;;;;;;;;20.20;42.90;;;;;;5050824;28;19939;-66
2023/03/30 06:44:42;;;;;;;;;;;20.20;43.00;;;;;;5069335;28;19966;-66
2023/03/30 06:47:10;;;;;;;;;;;20.20;43.00;;;;;;5050967;28;19921;-63
2023/03/30 06:49:37;;;;;;;;;;;20.20;43.00;;;;;;5049023;28;19963;-65
2023/03/30 06:52:04;;;;;;;;;;;20.20;43.00;;;;;;5048371;28;19924;-65
2023/03/30 06:54:30;;;;;;;;;;;20.20;43.00;;;;;;5060584;28;19970;-64
2023/03/30 06:56:57;;;;;;;;;;;20.20;43.00;;;;;;5049817;28;19924;-65
2023/03/30 06:59:24;;;;;;;;;;;20.20;43.10;;;;;;5047672;28;20375;-64
2023/03/30 07:01:51;;;;;;;;;;;20.20;43.10;;;;;;5051149;28;19921;-62
2023/03/30 07:04:19;;;;;;;;;;;20.20;43.10;;;;;;5051257;28;19973;-64
2023/03/30 07:06:45;;;;;;;;;;;20.20;43.10;;;;;;5051869;28;19920;-65
2023/03/30 07:09:12;;;;;;;;;;;20.20;43.10;;;;;;5050356;28;19939;-65
2023/03/30 07:11:39;;;;;;;;;;;20.20;43.10;;;;;;5055821;28;20015;-63
2023/03/30 07:14:08;;;;;;;;;;;20.20;43.10;;;;;;5056506;28;19927;-64
2023/03/30 07:16:37;;;;;;;;;;;20.20;43.10;;;;;;5054093;28;19927;-63
2023/03/30 07:19:04;;;;;;;;;;;20.20;43.20;;;;;;5050211;28;19925;-63
2023/03/30 07:21:32;;;;;;;;;;;20.20;43.20;;;;;;5071154;28;20002;-66
2023/03/30 07:24:00;;;;;;;;;;;20.20;43.20;;;;;;5060053;28;19920;-65
2023/03/30 07:26:27;;;;;;;;;;;20.20;43.20;;;;;;5060214;28;19939;-64
2023/03/30 07:28:55;;;;;;;;;;;20.20;43.10;;;;;;5058668;28;19931;-65
2023/03/30 07:31:22;;;;;;;;;;;20.20;43.20;;;;;;5052619;28;20098;-62
2023/03/30 07:33:48;;;;;;;;;;;20.20;43.20;;;;;;5067123;28;20334;-64
2023/03/30 07:36:15;;;;;;;;;;;20.20;43.20;;;;;;5050092;28;20378;-65
2023/03/30 07:38:43;;;;;;;;;;;20.20;43.20;;;;;;5053212;28;19932;-64
2023/03/30 07:41:11;;;;;;;;;;;20.20;43.20;;;;;;5068448;28;20008;-65
2023/03/30 07:43:39;;;;;;;;;;;20.20;43.20;;;;;;5051434;28;19936;-65
2023/03/30 07:46:06;;;;;;;;;;;20.20;43.20;;;;;;5050775;28;19927;-65
2023/03/30 07:48:32;;;;;;;;;;;20.20;43.20;;;;;;5063357;28;19920;-65
2023/03/30 07:51:00;;;;;;;;;;;20.20;43.20;;;;;;5049682;28;19925;-66
2023/03/30 07:53:27;;;;;;;;;;;20.20;43.10;;;;;;5052751;28;20308;-64
2023/03/30 07:55:55;;;;;;;;;;;20.20;43.10;;;;;;5056121;28;19920;-64
2023/03/30 07:58:22;;;;;;;;;;;20.20;43.20;;;;;;5068151;28;19955;-65
2023/03/30 08:00:49;;;;;;;;;;;20.20;43.20;;;;;;5051651;28;19925;-64
2023/03/30 08:03:16;;;;;;;;;;;20.20;43.20;;;;;;5052821;28;19933;-64
2023/03/30 08:05:45;;;;;;;;;;;20.20;43.20;;;;;;5055409;28;19972;-63
2023/03/30 08:08:12;;;;;;;;;;;20.20;43.20;;;;;;5069454;28;19920;-63
2023/03/30 08:10:39;;;;;;;;;;;20.20;43.20;;;;;;5051715;28;19924;-65
2023/03/30 08:13:08;;;;;;;;;;;20.20;43.20;;;;;;5070156;28;20035;-64
2023/03/30 08:15:35;;;;;;;;;;;20.20;43.30;;;;;;5052967;28;19928;-65
2023/03/30 08:18:05;;;;;;;;;;;20.20;43.30;;;;;;5049010;28;19920;-66
2023/03/30 08:20:32;;;;;;;;;;;20.20;43.30;;;;;;5070182;28;19924;-66
2023/03/30 08:22:59;;;;;;;;;;;20.20;43.30;;;;;;5052818;28;19991;-63
2023/03/30 08:25:26;;;;;;;;;;;20.20;43.30;;;;;;5053222;28;19970;-58
2023/03/30 08:27:53;;;;;;;;;;;20.20;43.30;;;;;;5049542;28;19933;-66
2023/03/30 08:30:21;;;;;;;;;;;20.20;43.30;;;;;;5049558;28;19966;-65
2023/03/30 08:32:48;;;;;;;;;;;20.20;43.30;;;;;;5052697;28;19970;-65
2023/03/30 08:35:15;;;;;;;;;;;20.20;43.40;;;;;;5068215;28;19925;-66
2023/03/30 08:37:42;;;;;;;;;;;20.20;43.30;;;;;;5058810;28;19950;-64
2023/03/30 08:40:11;;;;;;;;;;;20.30;43.40;;;;;;5068721;28;19924;-66
2023/03/30 08:42:42;;;;;;;;;;;20.20;43.40;;;;;;5064690;28;19944;-65
2023/03/30 08:45:09;;;;;;;;;;;20.20;43.40;;;;;;5067159;28;20343;-65
2023/03/30 08:47:39;;;;;;;;;;;20.20;43.40;;;;;;5069607;28;19924;-65
2023/03/30 08:50:07;;;;;;;;;;;20.20;43.40;;;;;;5061972;28;19967;-65
2023/03/30 08:52:34;;;;;;;;;;;20.20;43.40;;;;;;5047821;28;19989;-63
2023/03/30 08:55:01;;;;;;;;;;;20.20;43.40;;;;;;5054430;28;19924;-64
2023/03/30 08:57:32;;;;;;;;;;;20.20;43.40;;;;;;5072799;28;19920;-64
2023/03/30 09:00:00;;;;;;;;;;;20.20;43.40;;;;;;5060644;28;19959;-65
2023/03/30 09:02:28;;;;;;;;;;;20.20;43.50;;;;;;5063825;28;20204;-66
2023/03/30 09:05:00;;;;;;;;;;;20.20;43.50;;;;;;5070046;28;19924;-63
2023/03/30 09:07:27;;;;;;;;;;;20.30;43.70;;;;;;5066865;28;19924;-63
2023/03/30 09:09:55;;;;;;;;;;;20.20;43.60;;;;;;5071218;28;20354;-66
2023/03/30 09:12:22;;;;;;;;;;;20.20;43.60;;;;;;5053205;28;19940;-66
2023/03/30 09:14:50;;;;;;;;;;;20.30;43.70;;;;;;5062500;28;19924;-65
2023/03/30 09:17:17;;;;;;;;;;;20.20;43.60;;;;;;5070850;28;19924;-65
2023/03/30 09:19:47;;;;;;;;;;;20.20;43.60;;;;;;5060740;28;19932;-66
2023/03/30 09:22:15;;;;;;;;;;;20.30;43.70;;;;;;5054784;28;20132;-66
2023/03/30 09:24:42;;;;;;;;;;;20.20;43.60;;;;;;5053373;28;19920;-65
2023/03/30 09:27:09;;;;;;;;;;;20.20;43.60;;;;;;5064911;28;19924;-64
2023/03/30 09:29:38;;;;;;;;;;;20.20;43.60;;;;;;5061462;28;19938;-57
2023/03/30 09:32:09;;;;;;;;;;;20.20;43.70;;;;;;5056440;28;19921;-58
2023/03/30 09:34:36;;;;;;;;;;;20.20;43.70;;;;;;5053633;28;20431;-57
2023/03/30 09:37:04;;;;;;;;;;;20.20;43.70;;;;;;5053310;28;19939;-56
2023/03/30 09:39:34;;;;;;;;;;;20.30;43.80;;;;;;5055756;28;19955;-57
2023/03/30 09:42:15;;;;;;;;;;;20.20;43.80;;;;;;5053318;28;19964;-57
2023/03/30 09:44:44;;;;;;;;;;;20.30;43.90;;;;;;5053812;28;19924;-55
2023/03/30 09:47:16;;;;;;;;;;;20.20;43.90;;;;;;5058303;28;19948;-58
2023/03/30 09:49:43;;;;;;;;;;;20.30;43.90;;;;;;5067563;28;19928;-56
2023/03/30 09:52:15;;;;;;;;;;;20.30;43.90;;;;;;5057245;28;19924;-57
2023/03/30 09:54:43;;;;;;;;;;;20.30;44.00;;;;;;5056618;28;19920;-57
2023/03/30 09:57:22;;;;;;;;;;;20.30;44.00;;;;;;5052838;28;19929;-58
2023/03/30 09:59:49;;;;;;;;;;;20.30;44.00;;;;;;5050082;28;19943;-57
2023/03/30 10:02:17;;;;;;;;;;;20.30;44.00;;;;;;5067180;28;19927;-56
2023/03/30 10:04:59;;;;;;;;;;;20.30;44.10;;;;;;5056103;28;19955;-57
2023/03/30 10:07:26;;;;;;;;;;;20.30;44.10;;;;;;5055071;28;20019;-58
2023/03/30 10:09:55;;;;;;;;;;;20.30;44.10;;;;;;5066657;28;19925;-58
2023/03/30 10:12:23;;;;;;;;;;;20.30;44.10;;;;;;5057797;28;20019;-58
2023/03/30 10:14:53;;;;;;;;;;;20.30;44.20;;;;;;5057398;28;19936;-57
2023/03/30 10:17:20;;;;;;;;;;;20.30;44.20;;;;;;5055270;28;19920;-57
2023/03/30 10:19:47;;;;;;;;;;;20.30;44.20;;;;;;5055513;28;19936;-56
2023/03/30 10:22:15;;;;;;;;;;;20.30;44.20;;;;;;5056456;28;19921;-57
2023/03/30 10:24:48;;;;;;;;;;;20.30;44.20;;;;;;5052267;28;20023;-57
2023/03/30 10:27:16;;;;;;;;;;;20.30;44.30;;;;;;5052522;28;19920;-57
2023/03/30 10:29:44;;;;;;;;;;;20.30;44.30;;;;;;5052601;28;19983;-57
2023/03/30 10:32:12;;;;;;;;;;;20.30;44.30;;;;;;5056197;28;19920;-57
2023/03/30 10:34:39;;;;;;;;;;;20.30;44.40;;;;;;5068490;28;19921;-56
2023/03/30 10:37:06;;;;;;;;;;;20.30;44.40;;;;;;5058331;28;19921;-56
2023/03/30 10:39:33;;;;;;;;;;;20.30;44.30;;;;;;5068198;28;19999;-57
2023/03/30 10:42:00;;;;;;;;;;;20.30;44.30;;;;;;5052560;28;19962;-56
2023/03/30 10:44:30;;;;;;;;;;;20.30;44.30;;;;;;5068616;28;19934;-57
2023/03/30 10:47:03;;;;;;;;;;;20.30;44.30;;;;;;5067006;28;19936;-58
2023/03/30 10:49:33;;;;;;;;;;;20.30;44.30;;;;;;5055482;28;19936;-58
2023/03/30 10:52:02;;;;;;;;;;;20.30;44.30;;;;;;5052596;28;20433;-58
2023/03/30 10:54:29;;;;;;;;;;;20.40;44.40;;;;;;5068573;28;19920;-56
2023/03/30 10:56:57;;;;;;;;;;;20.30;44.30;;;;;;5066025;28;19970;-58
2023/03/30 10:59:28;;;;;;;;;;;20.30;44.20;;;;;;5068016;28;19921;-54
2023/03/30 11:01:59;;;;;;;;;;;20.30;44.20;;;;;;5053882;28;19927;-55
2023/03/30 11:04:28;;;;;;;;;;;20.30;44.20;;;;;;5068440;28;19939;-56
2023/03/30 11:06:55;;;;;;;;;;;20.30;44.20;;;;;;5054204;28;20019;-56
2023/03/30 11:09:23;;;;;;;;;;;20.30;44.10;;;;;;5055056;28;20378;-56
2023/03/30 11:11:51;;;;;;;;;;;20.30;44.10;;;;;;5055517;28;19933;-56
2023/03/30 11:14:19;;;;;;;;;;;20.30;44.10;;;;;;5054894;28;19924;-57
2023/03/30 11:16:49;;;;;;;;;;;20.40;44.20;;;;;;5053257;28;19931;-57
2023/03/30 11:19:18;;;;;;;;;;;20.40;44.10;;;;;;5051539;28;20526;-55
2023/03/30 11:21:46;;;;;;;;;;;20.40;44.10;;;;;;5053730;28;19924;-58
2023/03/30 11:24:14;;;;;;;;;;;20.40;44.10;;;;;;5055090;28;19932;-58
2023/03/30 11:26:41;;;;;;;;;;;20.40;44.10;;;;;;5068002;28;19927;-58
2023/03/30 11:29:14;;;;;;;;;;;20.30;44.00;;;;;;5051765;28;20035;-58
2023/03/30 11:31:49;;;;;;;;;;;20.30;44.00;;;;;;5051889;28;19921;-58
2023/03/30 11:34:20;;;;;;;;;;;20.30;43.90;;;;;;5054229;28;20033;-58
2023/03/30 11:36:49;;;;;;;;;;;20.40;44.10;;;;;;5036364;28;19928;-58
2023/03/30 11:39:16;;;;;;;;;;;20.40;44.10;;;;;;5060651;28;19932;-57
2023/03/30 11:41:44;;;;;;;;;;;20.40;44.00;;;;;;5068025;28;20046;-58
2023/03/30 11:44:12;;;;;;;;;;;20.40;44.00;;;;;;5062149;28;19924;-57
2023/03/30 11:46:40;;;;;;;;;;;20.30;43.90;;;;;;5066270;28;19999;-57
2023/03/30 11:49:17;;;;;;;;;;;20.40;43.90;;;;;;5067685;28;19928;-55
2023/03/30 11:51:48;;;;;;;;;;;20.40;44.00;;;;;;5066140;28;19920;-54
2023/03/30 11:54:28;;;;;;;;;;;20.30;43.80;;;;;;5071513;28;19968;-57
2023/03/30 11:56:56;;;;;;;;;;;20.30;43.80;;;;;;5065690;28;19967;-56
2023/03/30 11:59:24;;;;;;;;;;;20.40;43.90;;;;;;5070351;28;19920;-65
2023/03/30 12:01:55;;;;;;;;;;;20.30;43.80;;;;;;5076937;28;19920;-64
2023/03/30 12:04:24;;;;;;;;;;;20.40;44.00;;;;;;5061503;28;19978;-63
2023/03/30 12:06:53;;;;;;;;;;;20.40;44.00;;;;;;5069634;28;19939;-61
2023/03/30 12:09:23;;;;;;;;;;;20.40;43.90;;;;;;5069773;28;19928;-65
2023/03/30 12:11:51;;;;;;;;;;;20.40;43.90;;;;;;5068865;28;19967;-62
2023/03/30 12:14:40;;;;;;;;;;;20.40;43.90;;;;;;5072073;28;19932;-65
2023/03/30 12:17:07;;;;;;;;;;;20.40;43.80;;;;;;5069794;28;19924;-61
2023/03/30 12:19:36;;;;;;;;;;;20.40;43.80;;;;;;5072280;28;19920;-63
2023/03/30 12:22:05;;;;;;;;;;;20.40;43.80;;;;;;5070281;28;20516;-62
2023/03/30 12:24:33;;;;;;;;;;;20.40;43.80;;;;;;5071352;28;19921;-64
2023/03/30 12:27:00;;;;;;;;;;;20.40;43.80;;;;;;5071446;28;19940;-64
2023/03/30 12:29:42;;;;;;;;;;;20.40;43.80;;;;;;5072098;28;20027;-63
2023/03/30 12:32:18;;;;;;;;;;;20.40;43.80;;;;;;5058694;28;19920;-61
2023/03/30 12:34:45;;;;;;;;;;;20.50;43.80;;;;;;5070166;28;19939;-63
2023/03/30 12:37:14;;;;;;;;;;;20.50;43.80;;;;;;5068945;28;19986;-63
2023/03/30 12:39:43;;;;;;;;;;;20.50;43.80;;;;;;5070112;28;19936;-64
2023/03/30 12:42:15;;;;;;;;;;;20.50;43.90;;;;;;5069691;28;19942;-62
2023/03/30 12:44:43;;;;;;;;;;;20.50;43.90;;;;;;5060220;28;19950;-63
2023/03/30 12:47:18;;;;;;;;;;;20.50;43.80;;;;;;5065980;28;19924;-62
2023/03/30 12:49:53;;;;;;;;;;;20.50;43.80;;;;;;5070852;28;20015;-63
2023/03/30 12:52:25;;;;;;;;;;;20.50;43.80;;;;;;5068878;28;19925;-64
2023/03/30 12:54:59;;;;;;;;;;;20.50;43.80;;;;;;5069391;28;19928;-64
2023/03/30 12:57:30;;;;;;;;;;;20.50;43.90;;;;;;5056558;28;19920;-64
2023/03/30 13:00:03;;;;;;;;;;;20.50;43.90;;;;;;5069306;28;19951;-66
2023/03/30 13:02:35;;;;;;;;;;;20.50;43.90;;;;;;5065492;28;19920;-64
2023/03/30 13:05:03;;;;;;;;;;;20.60;43.90;;;;;;5068704;28;19963;-64
2023/03/30 13:07:35;;;;;;;;;;;20.60;43.90;;;;;;5057986;28;19927;-63
2023/03/30 13:10:02;;;;;;;;;;;20.60;44.00;;;;;;5057875;28;19933;-64
2023/03/30 13:12:39;;;;;;;;;;;20.60;44.00;;;;;;5067906;28;19950;-63
2023/03/30 13:15:19;;;;;;;;;;;20.60;44.00;;;;;;5068826;28;19920;-64
2023/03/30 13:17:50;;;;;;;;;;;20.60;44.00;;;;;;5067840;28;20182;-62
2023/03/30 13:20:17;;;;;;;;;;;20.60;44.00;;;;;;5051390;28;19920;-64
2023/03/30 13:22:58;;;;;;;;;;;20.60;44.00;;;;;;5069350;28;19921;-64
2023/03/30 13:25:25;;;;;;;;;;;20.60;44.00;;;;;;5064312;28;19920;-59
2023/03/30 13:27:52;;;;;;;;;;;20.60;44.00;;;;;;5069504;28;19929;-63
2023/03/30 13:30:19;;;;;;;;;;;20.60;44.00;;;;;;5070483;28;19920;-63
2023/03/30 13:32:48;;;;;;;;;;;20.60;44.00;;;;;;5067929;28;19925;-61
2023/03/30 13:35:20;;;;;;;;;;;20.60;44.00;;;;;;5069155;28;19966;-64
2023/03/30 13:37:49;;;;;;;;;;;20.60;44.00;;;;;;5067467;28;20367;-64
2023/03/30 13:40:18;;;;;;;;;;;20.60;44.00;;;;;;5070031;28;19927;-62
2023/03/30 13:42:48;;;;;;;;;;;20.60;44.00;;;;;;5066371;28;19951;-63
2023/03/30 13:45:18;;;;;;;;;;;20.70;44.10;;;;;;5069464;28;19966;-68
2023/03/30 13:47:48;;;;;;;;;;;20.70;44.10;;;;;;5067961;28;20401;-67
2023/03/30 13:50:16;;;;;;;;;;;20.60;44.00;;;;;;5067410;28;20240;-64
2023/03/30 13:52:44;;;;;;;;;;;20.60;44.00;;;;;;5086991;28;19912;-62
2023/03/30 13:55:15;;;;;;;;;;;20.70;44.10;;;;;;5077726;28;19921;-63
2023/03/30 13:57:43;;;;;;;;;;;20.70;44.10;;;;;;5069637;28;19931;-59
2023/03/30 14:00:20;;;;;;;;;;;20.70;44.10;;;;;;5067876;28;19920;-63
2023/03/30 14:02:48;;;;;;;;;;;20.70;44.10;;;;;;5067185;28;19920;-65
2023/03/30 14:05:19;;;;;;;;;;;20.70;44.10;;;;;;5067945;28;19971;-65
2023/03/30 14:07:46;;;;;;;;;;;20.70;44.10;;;;;;5064141;28;19924;-65
2023/03/30 14:10:13;;;;;;;;;;;20.70;44.10;;;;;;5069837;28;19925;-65
2023/03/30 14:12:40;;;;;;;;;;;20.70;44.10;;;;;;5067852;28;19931;-66
2023/03/30 14:15:16;;;;;;;;;;;20.70;44.10;;;;;;5067330;28;19974;-65
2023/03/30 14:17:46;;;;;;;;;;;20.70;44.10;;;;;;5066247;28;20008;-65
2023/03/30 14:20:14;;;;;;;;;;;20.70;44.10;;;;;;5067782;28;19924;-65
2023/03/30 14:22:42;;;;;;;;;;;20.70;44.10;;;;;;5068823;28;19920;-65
2023/03/30 14:25:21;;;;;;;;;;;20.70;44.10;;;;;;5065025;28;19929;-66